Hay River Airport
CYHY : rendu visible

Aérodrome :











RETROUVEZ-NOUS SUR...

 
LOGIN :

S'inscrire | Disclaimer

   EN    FR    IT 

 









Légende :    VFR   VFR Marginal   IFR   IFR Intensif   IFR Très Intensif
Visi : 
Plafond : 
>= 8 km
>= 3000ft
5 à 8 km
1000 à 3000 ft
1500m à 5 km
500 à 1000 ft
800 à 1500m
200 à 500 ft
< 800m
< 200 ft
Symboles :   Orages  Brouillard  Fortes neiges  Fortes précipitations  Vent > 20 kt






- Altitude de l'aérodrome : 543 ft
- Code IATA : YHY


CYHY - Hay River

DERNIER METAR :
  • 031754Z 00000KT 15SM SCT003 BKN066 BKN070CB BKN150 18/18 A2959 RMK SF3AC2CB1AC1 SLP026 DENSITY ALT 1400FT

METARs EXPIRÉS :
  • 031739Z 31004KT 15SM TS FEW012 BKN066 BKN070CB BKN130 18/17 A2960 RMK CF2AC3CB1AC1 SLP027 DENSITY ALT 1400FT
  • 031700Z 31008KT 240V340 15SM -TSRA BKN060CB BKN130 17/17 A2960 RMK CB5AC2 CB W NW NE SLP028 DENSITY ALT 1300FT
  • 031601Z CCA 27015KT 15SM -TSRA BKN065CB OVC130 17/17 A2964 RMK CB6AC2 PRESFR SLP043 DENSITY ALT 1300FT
  • 031558Z /////KT 1/2SM TSRA OVC045CB 18/17 A2966 RMK CB8 SLP049 DENSITY ALT 1300FT
  • 031551Z 25018G38KT 4SM -TSRA BKN050CB OVC130 18/17 A2967 RMK CB7AC1 SLP051 DENSITY ALT 1300FT
  • 031535Z 20017G22KT 15SM -TSRA FEW023 BKN048CB BKN180 OVC220 21/18 A2966 RMK CF2CB4AC1CI1 PRESRR SLP046 DENSITY ALT 1700FT
  • 031530Z 21005KT 180V250 15SM TS BKN054CB BKN130 BKN180 OVC220 21/19 A2961 RMK CB5AC1AS1CI1 SLP029 DENSITY ALT 1700FT
  • 031500Z VRB02KT 15SM SCT060CB BKN130 BKN180 OVC220 21/19 A2960 RMK CB3AC2AS2CI1 SLP028 DENSITY ALT 1700FT

TAF TAF CYHY
Valide du 03 à 18h jusqu'au 04 à 06h UTC


031738Z 0318/0406 20010KT P6SM BKN050 OVC120
TEMPO 0318/0403 VRB15G25KT 2SM TSRA BKN050CB OVC120 RMK NXT FCST BY 040000Z
FIR CZEG / Amérique du Nord



MET'MAP, la Météo Aéronautique d'un coup d'oeil ! - Copyright ORBIFLY Décembre 2007 - Disclaimer

ORBIFLY MET'MAP TEAM :

Programmation & Développement : Alexandra Zaïnal
Sur une idée originale de : Baudouin d'Aumeries
Assistance à la programmation : Marc-Olivier Méhu
Soutien technique & logistique : Manuel Goepfert

Contact : metmap@orbifly.com




SOURCES & CREDITS :

   NOAA       Earth
Advisory